Time;durP1;ratioP1;P1;durP2;ratioP2;P2;SDS_P1;SDS_P2;PMS_P1;PMS_P2;Temp;Humidity;BMP_temperature;BMP_pressure;BME280_temperature;BME280_humidity;BME280_pressure;Samples;Min_cycle;Max_cycle;Signal;HPM_P1;HPM_P2
2023/08/13 00:01:08;;;;;;;5.33;4.37;;;20.00;99.90;;;;;;5088635;28;20658;-79
2023/08/13 00:03:35;;;;;;;4.57;4.17;;;20.00;99.90;;;;;;5089316;28;21124;-79
2023/08/13 00:06:02;;;;;;;4.80;4.40;;;20.00;99.90;;;;;;5092273;28;20653;-79
2023/08/13 00:08:29;;;;;;;4.80;4.40;;;19.80;99.90;;;;;;5093983;28;20747;-79
2023/08/13 00:10:57;;;;;;;7.23;3.73;;;19.70;99.90;;;;;;5092768;28;20657;-79
2023/08/13 00:13:24;;;;;;;4.30;4.00;;;19.70;99.90;;;;;;5091968;28;20716;-78
2023/08/13 00:15:50;;;;;;;3.70;3.40;;;19.60;99.90;;;;;;5091650;28;20650;-79
2023/08/13 00:18:17;;;;;;;4.40;4.00;;;19.70;99.90;;;;;;5094108;28;20622;-79
2023/08/13 00:20:44;;;;;;;5.67;3.50;;;19.60;99.90;;;;;;5088045;28;20654;-79
2023/08/13 00:23:11;;;;;;;3.97;3.60;;;19.60;99.90;;;;;;5096673;28;20625;-79
2023/08/13 00:25:37;;;;;;;3.40;3.13;;;19.50;99.90;;;;;;5100170;28;20654;-79
2023/08/13 00:28:06;;;;;;;4.00;3.60;;;19.50;99.90;;;;;;5088261;28;20619;-79
2023/08/13 00:30:33;;;;;;;5.00;3.63;;;19.50;99.90;;;;;;5094736;28;20644;-79
2023/08/13 00:33:00;;;;;;;6.80;4.20;;;19.50;99.90;;;;;;5089287;28;20665;-78
2023/08/13 00:35:26;;;;;;;3.33;2.93;;;19.60;99.90;;;;;;5094144;28;20648;-79
2023/08/13 00:37:53;;;;;;;3.50;3.20;;;19.50;99.90;;;;;;5094633;28;20617;-80
2023/08/13 00:40:20;;;;;;;4.20;3.90;;;19.40;99.90;;;;;;5093015;28;20620;-79
2023/08/13 00:42:47;;;;;;;4.30;3.90;;;19.30;99.90;;;;;;5092313;28;20629;-79
2023/08/13 00:45:15;;;;;;;4.00;3.53;;;19.30;99.90;;;;;;5090352;28;21161;-78
2023/08/13 00:47:42;;;;;;;4.40;4.00;;;19.20;99.90;;;;;;5092400;28;21162;-78
2023/08/13 00:50:10;;;;;;;3.70;3.40;;;19.20;99.90;;;;;;5098125;28;20666;-77
2023/08/13 00:52:37;;;;;;;4.83;3.97;;;19.20;99.90;;;;;;5100702;28;20654;-78
2023/08/13 00:55:05;;;;;;;4.10;3.80;;;19.20;99.90;;;;;;5100171;28;20618;-78
2023/08/13 00:57:32;;;;;;;2.70;2.50;;;19.10;99.90;;;;;;5088711;28;20711;-78
2023/08/13 01:00:00;;;;;;;2.83;2.67;;;19.10;99.90;;;;;;5091617;28;20625;-78
2023/08/13 01:02:28;;;;;;;2.97;2.70;;;19.10;99.90;;;;;;5101033;28;20645;-78
2023/08/13 01:04:55;;;;;;;3.13;2.83;;;19.20;99.90;;;;;;5099340;28;20639;-78
2023/08/13 01:07:28;;;;;;;3.17;2.87;;;19.20;99.90;;;;;;5100460;28;20667;-78
2023/08/13 01:10:04;;;;;;;2.80;2.60;;;19.10;99.90;;;;;;5091145;28;20668;-78
2023/08/13 01:12:42;;;;;;;2.37;2.27;;;19.10;99.90;;;;;;5102098;28;21298;-78
2023/08/13 01:15:15;;;;;;;3.00;2.70;;;19.00;99.90;;;;;;5097270;28;20855;-79
2023/08/13 01:17:45;;;;;;;2.77;2.57;;;19.00;99.90;;;;;;5092529;28;20979;-78
2023/08/13 01:20:14;;;;;;;3.20;3.00;;;18.90;99.90;;;;;;5090978;28;20625;-78
2023/08/13 01:22:49;;;;;;;2.90;2.70;;;18.90;99.90;;;;;;5093605;28;20621;-78
2023/08/13 01:25:18;;;;;;;3.90;3.17;;;18.90;99.90;;;;;;5097113;28;20624;-78
2023/08/13 01:27:54;;;;;;;3.33;2.70;;;18.90;99.90;;;;;;5093563;28;20723;-78
2023/08/13 01:30:27;;;;;;;3.80;3.50;;;18.90;99.90;;;;;;5092327;28;21220;-78
2023/08/13 01:32:57;;;;;;;3.43;3.13;;;18.80;99.90;;;;;;5093112;28;20644;-78
2023/08/13 01:35:26;;;;;;;3.40;2.77;;;18.90;99.90;;;;;;5097554;28;21054;-78
2023/08/13 01:37:57;;;;;;;4.13;3.63;;;18.90;99.90;;;;;;5094759;28;20756;-79
2023/08/13 01:40:24;;;;;;;5.63;4.37;;;19.00;99.90;;;;;;5097895;28;20697;-78
2023/08/13 01:42:52;;;;;;;3.50;3.20;;;18.80;99.90;;;;;;5091646;28;20628;-78
2023/08/13 01:45:20;;;;;;;3.13;2.93;;;18.90;99.90;;;;;;5092477;28;20628;-79
2023/08/13 01:47:48;;;;;;;3.57;3.20;;;18.90;99.90;;;;;;5092854;28;20971;-79
2023/08/13 01:50:16;;;;;;;3.90;3.57;;;18.90;99.90;;;;;;5095483;28;20622;-79
2023/08/13 01:52:43;;;;;;;4.57;3.17;;;18.90;99.90;;;;;;5092147;28;20754;-79
2023/08/13 01:55:12;;;;;;;4.13;3.17;;;18.80;99.90;;;;;;5099715;28;20654;-79
2023/08/13 01:57:40;;;;;;;4.40;4.03;;;18.90;99.90;;;;;;5094806;28;20620;-79
2023/08/13 02:00:09;;;;;;;3.70;3.40;;;18.90;99.90;;;;;;5098813;28;20723;-79
2023/08/13 02:02:36;;;;;;;4.23;3.83;;;18.80;99.90;;;;;;5099403;28;20628;-79
2023/08/13 02:05:05;;;;;;;3.93;3.57;;;18.90;99.90;;;;;;5090447;28;20620;-79
2023/08/13 02:07:32;;;;;;;4.10;3.73;;;18.80;99.90;;;;;;5102429;28;20631;-79
2023/08/13 02:09:59;;;;;;;4.30;3.90;;;18.80;99.90;;;;;;5090399;28;20727;-78
2023/08/13 02:12:27;;;;;;;3.60;3.30;;;18.80;99.90;;;;;;5105527;28;20743;-79
2023/08/13 02:14:54;;;;;;;4.50;4.07;;;18.90;99.90;;;;;;5090276;28;21023;-79
2023/08/13 02:17:21;;;;;;;3.40;3.10;;;18.90;99.90;;;;;;5099296;28;20640;-78
2023/08/13 02:19:48;;;;;;;4.77;4.07;;;18.80;99.90;;;;;;5099587;28;20620;-78
2023/08/13 02:22:16;;;;;;;4.33;3.20;;;18.90;99.90;;;;;;5099340;28;20741;-79
2023/08/13 02:24:44;;;;;;;3.00;2.80;;;18.80;99.90;;;;;;5090717;28;20620;-79
2023/08/13 02:27:12;;;;;;;3.70;3.50;;;18.90;99.90;;;;;;5093948;28;21005;-79
2023/08/13 02:29:42;;;;;;;3.60;3.30;;;19.00;99.90;;;;;;5090092;28;20624;-79
2023/08/13 02:32:10;;;;;;;4.40;3.80;;;19.00;99.90;;;;;;5096224;28;20678;-79
2023/08/13 02:34:44;;;;;;;3.87;3.57;;;19.00;99.90;;;;;;5094367;28;21188;-78
2023/08/13 02:37:12;;;;;;;2.80;2.60;;;19.00;99.90;;;;;;5085442;28;20721;-79
2023/08/13 02:39:39;;;;;;;4.63;3.70;;;19.00;99.90;;;;;;5093243;28;21071;-78
2023/08/13 02:42:07;;;;;;;3.37;3.10;;;19.10;99.90;;;;;;5093098;28;21008;-78
2023/08/13 02:44:34;;;;;;;4.00;3.60;;;19.00;99.90;;;;;;5090279;28;21256;-79
2023/08/13 02:47:03;;;;;;;3.57;3.23;;;19.00;99.90;;;;;;5098909;28;20777;-79
2023/08/13 02:49:30;;;;;;;3.93;3.33;;;19.00;99.90;;;;;;5099597;28;20628;-79
2023/08/13 02:51:58;;;;;;;3.77;3.47;;;19.00;99.90;;;;;;5097296;28;20752;-79
2023/08/13 02:54:26;;;;;;;4.10;3.63;;;19.10;99.90;;;;;;5097232;28;20970;-78
2023/08/13 02:56:53;;;;;;;4.10;3.80;;;19.10;99.90;;;;;;5093368;28;20636;-77
2023/08/13 02:59:21;;;;;;;4.07;3.60;;;19.10;99.90;;;;;;5096049;28;21223;-79
2023/08/13 03:01:48;;;;;;;3.97;3.57;;;19.20;99.90;;;;;;5095657;28;20656;-79
2023/08/13 03:04:17;;;;;;;4.33;3.80;;;19.30;99.90;;;;;;5101736;28;20620;-79
2023/08/13 03:06:45;;;;;;;4.90;4.40;;;19.40;99.90;;;;;;5089531;28;21009;-77
2023/08/13 03:09:19;;;;;;;3.87;3.50;;;19.20;99.90;;;;;;5100248;28;20649;-78
2023/08/13 03:11:47;;;;;;;4.10;3.80;;;19.30;99.90;;;;;;5089925;28;20698;-78
2023/08/13 03:14:15;;;;;;;3.93;3.63;;;19.40;99.90;;;;;;5095358;28;20659;-79
2023/08/13 03:16:44;;;;;;;4.00;3.70;;;19.20;99.90;;;;;;5097500;28;20652;-79
2023/08/13 03:19:11;;;;;;;4.07;3.77;;;19.20;99.90;;;;;;5088544;28;20678;-79
2023/08/13 03:21:39;;;;;;;4.40;4.00;;;19.20;99.90;;;;;;5089913;28;20634;-79
2023/08/13 03:24:07;;;;;;;4.83;4.43;;;19.20;99.90;;;;;;5090468;28;20625;-78
2023/08/13 03:26:34;;;;;;;4.43;4.07;;;19.30;99.90;;;;;;5093781;28;20645;-78
2023/08/13 03:29:01;;;;;;;4.90;4.40;;;19.40;99.90;;;;;;5088827;28;20633;-78
2023/08/13 03:31:28;;;;;;;4.20;3.80;;;19.40;99.90;;;;;;5091641;28;21224;-78
2023/08/13 03:33:55;;;;;;;4.43;4.03;;;19.20;99.90;;;;;;5089639;28;20992;-78
2023/08/13 03:36:21;;;;;;;9.50;4.50;;;19.20;99.90;;;;;;5095075;28;20732;-78
2023/08/13 03:38:49;;;;;;;4.50;4.10;;;19.10;99.90;;;;;;5089910;28;20629;-78
2023/08/13 03:41:16;;;;;;;3.93;3.60;;;19.10;99.90;;;;;;5096649;28;20651;-78
2023/08/13 03:43:43;;;;;;;6.83;4.83;;;19.00;99.90;;;;;;5088899;28;21207;-78
2023/08/13 03:46:10;;;;;;;5.03;4.60;;;19.00;99.90;;;;;;5093194;28;20747;-78
2023/08/13 03:48:36;;;;;;;4.63;4.13;;;19.00;99.90;;;;;;5096408;28;20632;-78
2023/08/13 03:51:04;;;;;;;5.03;4.13;;;18.90;99.90;;;;;;5089224;28;20643;-78
2023/08/13 03:53:31;;;;;;;4.17;3.87;;;19.00;99.90;;;;;;5098355;28;20924;-78
2023/08/13 03:55:59;;;;;;;4.80;4.40;;;19.00;99.90;;;;;;5089524;28;20648;-78
2023/08/13 03:58:26;;;;;;;5.23;4.80;;;19.00;99.90;;;;;;5097749;28;20994;-80
2023/08/13 04:00:53;;;;;;;4.60;4.20;;;19.20;99.90;;;;;;5094972;28;20637;-79
2023/08/13 04:03:20;;;;;;;4.53;4.13;;;19.20;99.90;;;;;;5099287;28;20616;-79
2023/08/13 04:05:47;;;;;;;5.00;4.53;;;19.20;99.90;;;;;;5099438;28;20637;-79
2023/08/13 04:08:13;;;;;;;7.20;4.70;;;19.20;99.90;;;;;;5088681;28;20655;-79
2023/08/13 04:10:40;;;;;;;4.73;4.30;;;19.20;99.90;;;;;;5093505;28;20640;-79
2023/08/13 04:13:08;;;;;;;6.23;3.50;;;19.20;99.90;;;;;;5088729;28;20660;-79
2023/08/13 04:15:35;;;;;;;3.80;3.50;;;19.20;99.90;;;;;;5104374;28;20966;-78
2023/08/13 04:18:02;;;;;;;4.27;3.87;;;19.30;99.90;;;;;;5092614;28;20637;-79
2023/08/13 04:20:29;;;;;;;5.00;4.47;;;19.20;99.90;;;;;;5096380;28;20660;-78
2023/08/13 04:22:55;;;;;;;4.83;4.40;;;19.20;99.90;;;;;;5096704;28;20622;-79
2023/08/13 04:25:22;;;;;;;4.27;3.87;;;19.30;99.90;;;;;;5088539;28;20624;-78
2023/08/13 04:27:49;;;;;;;5.53;4.27;;;19.40;99.90;;;;;;5097192;28;20634;-79
2023/08/13 04:30:17;;;;;;;3.27;3.03;;;19.40;99.90;;;;;;5086588;28;20617;-78
2023/08/13 04:32:53;;;;;;;4.90;4.50;;;19.40;99.90;;;;;;5085426;28;20659;-78
2023/08/13 04:35:19;;;;;;;3.73;3.30;;;19.40;99.90;;;;;;5087788;28;21175;-78
2023/08/13 04:37:46;;;;;;;3.80;3.47;;;19.40;99.90;;;;;;5088598;28;20950;-78
2023/08/13 04:40:13;;;;;;;5.20;4.77;;;19.50;99.90;;;;;;5088930;28;20621;-78
2023/08/13 04:42:41;;;;;;;4.73;4.33;;;19.50;99.90;;;;;;5087775;28;20626;-78
2023/08/13 04:45:08;;;;;;;4.63;4.20;;;19.50;99.90;;;;;;5090033;28;20980;-79
2023/08/13 04:47:36;;;;;;;3.93;3.63;;;19.40;99.90;;;;;;5094162;28;20630;-78
2023/08/13 04:50:04;;;;;;;4.83;4.37;;;19.50;99.90;;;;;;5087949;28;20633;-78
2023/08/13 04:52:30;;;;;;;5.20;4.70;;;19.50;99.90;;;;;;5095870;28;20648;-78
2023/08/13 04:54:58;;;;;;;4.30;3.90;;;19.40;99.90;;;;;;5092007;28;20617;-78
2023/08/13 04:57:24;;;;;;;4.00;3.60;;;19.40;99.90;;;;;;5090883;28;21001;-79
2023/08/13 04:59:51;;;;;;;7.57;4.47;;;19.40;99.90;;;;;;5095001;28;20628;-78
2023/08/13 05:02:18;;;;;;;4.00;3.60;;;19.30;99.90;;;;;;5093689;28;20748;-78
2023/08/13 05:04:46;;;;;;;4.40;4.00;;;19.40;99.90;;;;;;5094880;28;20605;-78
2023/08/13 05:07:13;;;;;;;4.67;4.30;;;19.40;99.90;;;;;;5087589;28;20665;-78
2023/08/13 05:09:40;;;;;;;5.00;4.50;;;19.60;99.90;;;;;;5087631;28;21180;-78
2023/08/13 05:12:08;;;;;;;6.17;3.97;;;19.70;99.90;;;;;;5097329;28;20965;-78
2023/08/13 05:14:34;;;;;;;5.40;4.90;;;19.60;99.90;;;;;;5087576;28;20665;-78
2023/08/13 05:17:01;;;;;;;4.87;4.17;;;19.60;99.90;;;;;;5089059;28;20653;-78
2023/08/13 05:19:28;;;;;;;4.70;4.30;;;19.60;99.90;;;;;;5098708;28;20626;-78
2023/08/13 05:21:56;;;;;;;5.27;3.80;;;19.60;99.90;;;;;;5096470;28;20642;-78
2023/08/13 05:24:23;;;;;;;4.60;4.20;;;19.60;99.90;;;;;;5087876;28;20728;-78
2023/08/13 05:26:49;;;;;;;7.27;4.23;;;19.60;99.90;;;;;;5090570;28;20741;-79
2023/08/13 05:29:16;;;;;;;3.97;3.60;;;19.60;99.90;;;;;;5086941;28;20627;-78
2023/08/13 05:31:43;;;;;;;5.10;4.63;;;19.60;99.90;;;;;;5091524;28;20642;-78
2023/08/13 05:34:10;;;;;;;5.43;4.93;;;19.60;99.90;;;;;;5095642;28;21226;-78
2023/08/13 05:36:36;;;;;;;4.33;3.93;;;19.60;99.90;;;;;;5100238;28;20641;-78
2023/08/13 05:39:07;;;;;;;5.07;4.30;;;19.60;99.90;;;;;;5097744;28;20705;-78
2023/08/13 05:41:34;;;;;;;5.60;5.10;;;19.60;99.90;;;;;;5097009;28;20649;-78
2023/08/13 05:44:01;;;;;;;5.20;4.70;;;19.70;99.90;;;;;;5090015;28;20626;-79
2023/08/13 05:46:27;;;;;;;4.47;4.07;;;19.70;99.90;;;;;;5094116;28;20653;-79
2023/08/13 05:48:54;;;;;;;4.83;4.40;;;19.80;99.90;;;;;;5093765;28;20623;-79
2023/08/13 05:51:21;;;;;;;4.53;4.13;;;19.70;99.90;;;;;;5103060;28;20653;-79
2023/08/13 05:53:48;;;;;;;6.47;5.57;;;19.70;99.90;;;;;;5091447;28;21176;-79
2023/08/13 05:56:16;;;;;;;5.67;4.77;;;19.80;99.90;;;;;;5096211;28;20641;-78
2023/08/13 05:58:43;;;;;;;4.80;4.37;;;19.70;99.90;;;;;;5095793;28;21244;-79
2023/08/13 06:01:10;;;;;;;6.33;4.63;;;19.70;99.90;;;;;;5091771;28;20647;-79
2023/08/13 06:03:37;;;;;;;5.80;4.97;;;19.70;99.90;;;;;;5095110;28;20630;-79
2023/08/13 06:06:04;;;;;;;5.77;5.20;;;19.70;99.90;;;;;;5094293;28;20694;-79
2023/08/13 06:08:31;;;;;;;4.70;4.30;;;19.80;99.90;;;;;;5090613;28;20638;-79
2023/08/13 06:10:58;;;;;;;6.73;6.07;;;19.80;99.90;;;;;;5090712;28;20741;-79
2023/08/13 06:13:26;;;;;;;6.73;6.07;;;19.80;99.90;;;;;;5100636;28;21279;-79
2023/08/13 06:15:52;;;;;;;5.13;4.50;;;19.80;99.90;;;;;;5090516;28;20648;-79
2023/08/13 06:18:21;;;;;;;4.70;4.30;;;19.80;99.90;;;;;;5093279;28;20637;-79
2023/08/13 06:20:47;;;;;;;5.77;5.07;;;19.90;99.90;;;;;;5095384;28;21386;-79
2023/08/13 06:23:14;;;;;;;5.90;4.33;;;19.90;99.90;;;;;;5094418;28;20721;-79
2023/08/13 06:25:41;;;;;;;5.63;5.13;;;19.90;99.90;;;;;;5101837;28;20655;-79
2023/08/13 06:28:08;;;;;;;5.17;4.70;;;19.90;99.90;;;;;;5095989;28;20636;-79
2023/08/13 06:30:36;;;;;;;5.13;4.63;;;20.00;99.90;;;;;;5097335;28;20651;-78
2023/08/13 06:33:04;;;;;;;5.57;5.03;;;20.10;99.90;;;;;;5090950;28;20644;-78
2023/08/13 06:35:31;;;;;;;5.13;4.63;;;20.10;99.90;;;;;;5090804;28;20642;-78
2023/08/13 06:37:58;;;;;;;5.60;4.63;;;20.10;99.90;;;;;;5096470;28;20722;-79
2023/08/13 06:40:24;;;;;;;6.40;5.80;;;20.20;99.90;;;;;;5100634;28;20661;-79
2023/08/13 06:42:51;;;;;;;6.10;5.50;;;20.10;99.90;;;;;;5094142;28;20995;-79
2023/08/13 06:45:19;;;;;;;6.10;5.47;;;20.00;99.90;;;;;;5096737;28;20684;-82
2023/08/13 06:47:47;;;;;;;4.57;4.17;;;20.00;99.90;;;;;;5088775;28;20644;-82
2023/08/13 06:50:14;;;;;;;4.53;4.00;;;20.00;99.90;;;;;;5089737;28;20623;-82
2023/08/13 06:52:41;;;;;;;4.63;4.23;;;20.10;99.90;;;;;;5090602;28;20634;-82
2023/08/13 06:55:08;;;;;;;4.90;4.50;;;20.10;99.90;;;;;;5093892;28;20649;-82
2023/08/13 06:57:34;;;;;;;5.50;4.80;;;20.20;99.90;;;;;;5095600;28;20714;-82
2023/08/13 07:00:02;;;;;;;6.73;5.13;;;20.10;99.90;;;;;;5097872;28;20623;-82
2023/08/13 07:02:29;;;;;;;5.30;4.70;;;20.10;99.90;;;;;;5089975;28;20631;-82
2023/08/13 07:04:57;;;;;;;5.10;4.40;;;20.20;99.90;;;;;;5089803;28;20962;-81
2023/08/13 07:07:24;;;;;;;10.03;5.70;;;20.10;99.90;;;;;;5091912;28;20655;-78
2023/08/13 07:09:51;;;;;;;5.47;4.73;;;20.10;99.90;;;;;;5097191;28;20619;-82
2023/08/13 07:12:18;;;;;;;7.30;5.80;;;20.20;99.90;;;;;;5097794;28;20645;-82
2023/08/13 07:14:45;;;;;;;5.77;5.27;;;20.20;99.90;;;;;;5089347;28;20656;-83
2023/08/13 07:17:12;;;;;;;7.37;5.00;;;20.20;99.90;;;;;;5092766;28;20660;-75
2023/08/13 07:19:38;;;;;;;5.00;4.50;;;20.20;99.90;;;;;;5094500;28;20660;-76
2023/08/13 07:22:07;;;;;;;5.30;4.80;;;20.30;99.90;;;;;;5088054;28;21250;-82
2023/08/13 07:24:34;;;;;;;6.03;5.00;;;20.30;99.90;;;;;;5090523;28;20719;-77
2023/08/13 07:27:00;;;;;;;5.23;4.40;;;20.30;99.90;;;;;;5091047;28;20751;-77
2023/08/13 07:29:28;;;;;;;4.90;4.30;;;20.30;99.90;;;;;;5091656;28;20979;-78
2023/08/13 07:31:54;;;;;;;4.90;4.40;;;20.40;99.90;;;;;;5093032;28;20642;-74
2023/08/13 07:34:21;;;;;;;5.67;5.17;;;20.50;99.90;;;;;;5096112;28;20721;-75
2023/08/13 07:36:48;;;;;;;5.80;4.70;;;20.50;99.90;;;;;;5098919;28;20644;-71
2023/08/13 07:39:16;;;;;;;5.00;4.60;;;20.50;99.90;;;;;;5093744;28;20683;-75
2023/08/13 07:41:43;;;;;;;5.10;4.60;;;20.40;99.90;;;;;;5088953;28;20648;-76
2023/08/13 07:44:10;;;;;;;8.17;5.63;;;20.50;99.90;;;;;;5098240;28;21234;-74
2023/08/13 07:46:37;;;;;;;5.70;5.13;;;20.50;99.90;;;;;;5088619;28;20648;-73
2023/08/13 07:49:04;;;;;;;4.60;4.10;;;20.60;99.90;;;;;;5096991;28;20629;-72
2023/08/13 07:51:30;;;;;;;4.93;4.47;;;20.60;99.90;;;;;;5092131;28;20677;-73
2023/08/13 07:53:57;;;;;;;5.10;4.63;;;20.70;99.90;;;;;;5097484;28;20647;-75
2023/08/13 07:56:25;;;;;;;8.03;4.70;;;20.80;99.90;;;;;;5086349;28;20650;-75
2023/08/13 07:58:52;;;;;;;5.60;4.93;;;20.80;99.90;;;;;;5094143;28;20630;-78
2023/08/13 08:01:19;;;;;;;6.40;5.80;;;21.00;99.90;;;;;;5088207;28;20645;-75
2023/08/13 08:03:46;;;;;;;5.20;4.70;;;21.10;99.90;;;;;;5087711;28;20622;-82
2023/08/13 08:06:13;;;;;;;4.40;4.00;;;21.20;99.90;;;;;;5088633;28;20654;-76
2023/08/13 08:08:40;;;;;;;5.77;4.80;;;21.20;99.90;;;;;;5088925;28;20966;-81
2023/08/13 08:11:06;;;;;;;4.20;3.90;;;21.20;99.90;;;;;;5082223;28;20658;-74
2023/08/13 08:13:35;;;;;;;4.97;4.40;;;21.30;99.90;;;;;;5085714;28;21008;-74
2023/08/13 08:16:02;;;;;;;4.63;4.23;;;21.30;99.90;;;;;;5087952;28;20701;-75
2023/08/13 08:18:29;;;;;;;4.83;4.30;;;21.20;99.90;;;;;;5089819;28;20733;-75
2023/08/13 08:21:01;;;;;;;4.90;4.50;;;21.30;99.90;;;;;;5087276;28;20641;-74
2023/08/13 08:23:33;;;;;;;5.70;4.00;;;21.30;99.90;;;;;;5090608;28;20615;-74
2023/08/13 08:26:00;;;;;;;4.70;4.27;;;21.50;99.90;;;;;;5085205;28;20641;-72
2023/08/13 08:28:27;;;;;;;3.90;3.60;;;21.50;99.90;;;;;;5089750;28;20787;-72
2023/08/13 08:30:55;;;;;;;4.27;3.90;;;21.30;99.90;;;;;;5093256;28;21449;-71
2023/08/13 08:33:23;;;;;;;4.37;4.00;;;21.40;99.90;;;;;;5088811;28;20651;-71
2023/08/13 08:35:50;;;;;;;4.80;3.70;;;21.40;99.90;;;;;;5085866;28;20653;-72
2023/08/13 08:38:16;;;;;;;4.47;4.17;;;21.30;99.90;;;;;;5089993;28;20750;-71
2023/08/13 08:40:45;;;;;;;4.40;4.00;;;21.30;99.90;;;;;;5095228;28;20759;-71
2023/08/13 08:43:13;;;;;;;4.10;3.70;;;21.30;99.90;;;;;;5090883;28;20644;-71
2023/08/13 08:45:40;;;;;;;4.70;4.30;;;21.40;99.90;;;;;;5087029;28;20939;-72
2023/08/13 08:48:11;;;;;;;3.40;3.10;;;21.40;99.90;;;;;;5092942;28;20739;-72
2023/08/13 08:50:37;;;;;;;3.90;3.60;;;21.60;99.90;;;;;;5097194;28;20652;-72
2023/08/13 08:53:05;;;;;;;4.30;3.90;;;21.80;99.90;;;;;;5098001;28;20722;-71
2023/08/13 08:55:32;;;;;;;4.37;3.97;;;21.80;99.90;;;;;;5087999;28;20674;-71
2023/08/13 08:57:58;;;;;;;4.57;4.17;;;21.90;99.90;;;;;;5087786;28;20622;-71
2023/08/13 09:00:25;;;;;;;4.20;3.80;;;21.90;99.90;;;;;;5098240;28;20659;-72
2023/08/13 09:02:52;;;;;;;3.47;3.17;;;21.90;99.90;;;;;;5096890;28;21226;-71
2023/08/13 09:05:21;;;;;;;4.83;4.07;;;22.00;99.90;;;;;;5088552;28;21167;-72
2023/08/13 09:07:48;;;;;;;4.90;3.90;;;22.00;99.90;;;;;;5100328;28;21087;-71
2023/08/13 09:10:15;;;;;;;4.23;3.83;;;22.00;99.90;;;;;;5093804;28;20623;-72
2023/08/13 09:12:42;;;;;;;4.37;3.97;;;22.10;99.90;;;;;;5092628;28;20625;-72
2023/08/13 09:15:11;;;;;;;5.80;4.30;;;22.20;99.90;;;;;;5091504;28;21132;-71
2023/08/13 09:17:38;;;;;;;5.70;4.17;;;22.20;99.90;;;;;;5091119;28;20643;-71
2023/08/13 09:20:17;;;;;;;4.90;4.10;;;22.30;99.90;;;;;;5100283;28;20625;-72
2023/08/13 09:22:46;;;;;;;4.60;4.23;;;22.30;99.90;;;;;;5099227;28;20634;-71
2023/08/13 09:25:14;;;;;;;5.23;4.03;;;22.10;99.90;;;;;;5097369;28;21076;-71
2023/08/13 09:27:41;;;;;;;5.33;4.40;;;21.90;99.90;;;;;;5102593;28;20725;-72
2023/08/13 09:30:12;;;;;;;8.47;4.60;;;21.90;99.90;;;;;;5097925;28;20624;-71
2023/08/13 09:32:39;;;;;;;4.17;3.87;;;22.00;99.90;;;;;;5094206;28;20626;-72
2023/08/13 09:35:06;;;;;;;4.37;4.07;;;22.40;99.90;;;;;;5091325;28;20659;-71
2023/08/13 09:37:33;;;;;;;5.00;4.23;;;22.60;99.90;;;;;;5091625;28;20625;-71
2023/08/13 09:40:01;;;;;;;3.90;3.60;;;22.70;99.90;;;;;;5098453;28;20629;-71
2023/08/13 09:42:31;;;;;;;4.53;4.13;;;22.80;99.90;;;;;;5096054;28;20657;-72
2023/08/13 09:44:58;;;;;;;3.20;3.00;;;23.00;99.90;;;;;;5092276;28;20634;-72
2023/08/13 09:47:26;;;;;;;4.07;3.67;;;22.90;99.90;;;;;;5098514;28;20653;-72
2023/08/13 09:49:56;;;;;;;4.50;3.80;;;23.00;99.90;;;;;;5105105;28;20729;-72
2023/08/13 09:52:27;;;;;;;5.23;4.73;;;23.00;99.90;;;;;;5087354;28;20647;-71
2023/08/13 09:54:58;;;;;;;4.70;3.90;;;23.00;99.90;;;;;;5086983;28;20753;-72
2023/08/13 09:57:27;;;;;;;5.50;4.50;;;23.00;99.90;;;;;;5082586;28;20654;-71
2023/08/13 09:59:55;;;;;;;4.40;4.10;;;23.00;99.90;;;;;;5099445;28;21071;-72
2023/08/13 10:02:24;;;;;;;4.07;3.77;;;22.80;99.90;;;;;;5100157;28;20682;-71
2023/08/13 10:04:53;;;;;;;5.13;3.87;;;22.90;99.90;;;;;;5091077;28;20790;-72
2023/08/13 10:07:22;;;;;;;4.13;3.73;;;23.10;99.90;;;;;;5091132;28;20662;-72
2023/08/13 10:09:50;;;;;;;4.20;3.80;;;23.50;99.90;;;;;;5090821;28;20746;-71
2023/08/13 10:12:16;;;;;;;4.83;3.60;;;23.80;99.90;;;;;;5100117;28;20648;-72
2023/08/13 10:14:45;;;;;;;4.10;3.70;;;24.10;99.90;;;;;;5098754;28;20769;-72
2023/08/13 10:17:17;;;;;;;4.47;4.17;;;24.20;99.90;;;;;;5089566;28;21101;-72
2023/08/13 10:19:49;;;;;;;4.77;4.03;;;24.40;99.90;;;;;;5098634;28;20634;-72
2023/08/13 10:22:24;;;;;;;4.50;3.63;;;24.50;99.90;;;;;;5099073;28;20657;-72
2023/08/13 10:24:50;;;;;;;5.27;4.20;;;24.60;99.90;;;;;;5082323;28;20623;-72
2023/08/13 10:27:22;;;;;;;4.57;4.17;;;24.70;99.90;;;;;;5089838;28;20650;-72
2023/08/13 10:29:50;;;;;;;3.90;3.50;;;24.40;99.90;;;;;;5091220;28;20628;-72
2023/08/13 10:32:17;;;;;;;4.60;4.20;;;24.20;99.90;;;;;;5096829;28;21199;-71
2023/08/13 10:34:47;;;;;;;4.73;4.27;;;24.00;99.90;;;;;;5094054;28;21030;-71
2023/08/13 10:37:17;;;;;;;4.83;4.43;;;24.10;99.90;;;;;;5097569;28;21016;-71
2023/08/13 10:39:45;;;;;;;4.40;4.00;;;24.50;99.90;;;;;;5093307;28;20631;-72
2023/08/13 10:42:49;;;;;;;4.17;3.83;;;24.90;99.90;;;;;;5099030;28;20651;-71
2023/08/13 10:45:19;;;;;;;3.80;3.47;;;25.10;99.90;;;;;;5026274;28;20661;-72
2023/08/13 10:47:46;;;;;;;3.83;3.50;;;25.30;99.90;;;;;;5027576;28;21207;-73
2023/08/13 10:50:26;;;;;;;4.07;3.67;;;25.10;99.90;;;;;;5055625;28;20637;-73
2023/08/13 10:52:54;;;;;;;3.67;3.37;;;25.30;99.90;;;;;;5089864;28;20961;-73
2023/08/13 10:55:23;;;;;;;4.67;4.27;;;25.10;99.90;;;;;;5081900;28;20649;-72
2023/08/13 10:57:51;;;;;;;4.17;3.87;;;24.70;99.90;;;;;;5083422;28;20736;-72
2023/08/13 11:00:21;;;;;;;3.70;3.43;;;24.80;99.90;;;;;;5081962;28;20685;-72
2023/08/13 11:02:52;;;;;;;4.68;4.28;;;24.80;99.90;;;;;;5084876;28;20737;-72
2023/08/13 11:05:20;;;;;;;4.53;4.13;;;24.50;99.90;;;;;;5091264;28;20694;-72
2023/08/13 11:07:47;;;;;;;4.67;4.27;;;24.60;99.90;;;;;;5094207;28;21195;-72
2023/08/13 11:10:18;;;;;;;4.50;4.10;;;25.10;99.90;;;;;;5087213;28;20934;-72
2023/08/13 11:12:46;;;;;;;4.90;4.20;;;25.40;99.90;;;;;;5090931;28;20632;-73
2023/08/13 11:15:13;;;;;;;4.70;3.33;;;25.80;99.90;;;;;;5090905;28;20655;-73
2023/08/13 11:17:46;;;;;;;3.40;3.20;;;25.80;99.90;;;;;;5092147;28;20660;-73
2023/08/13 11:20:14;;;;;;;3.20;3.00;;;25.50;99.90;;;;;;5091593;28;21087;-73
2023/08/13 11:22:41;;;;;;;3.70;3.30;;;25.40;99.90;;;;;;5087771;28;20625;-72
2023/08/13 11:25:09;;;;;;;4.00;3.67;;;25.50;99.90;;;;;;5087426;28;20957;-73
2023/08/13 11:27:36;;;;;;;4.50;4.10;;;25.60;99.90;;;;;;5094346;28;20621;-72
2023/08/13 11:30:03;;;;;;;4.27;3.97;;;25.10;99.90;;;;;;5090411;28;20635;-72
2023/08/13 11:32:30;;;;;;;3.50;3.20;;;25.00;99.90;;;;;;5088472;28;20637;-73
2023/08/13 11:34:59;;;;;;;6.50;3.90;;;25.30;99.90;;;;;;5092928;28;20973;-72
2023/08/13 11:37:26;;;;;;;4.10;3.70;;;25.70;99.90;;;;;;5092772;28;20653;-72
2023/08/13 11:39:53;;;;;;;4.00;3.70;;;26.30;99.90;;;;;;5091593;28;20625;-72
2023/08/13 11:42:19;;;;;;;3.60;3.30;;;26.90;99.90;;;;;;5093177;28;20656;-72
2023/08/13 11:44:49;;;;;;;3.80;3.50;;;27.50;99.90;;;;;;5093751;28;20621;-72
2023/08/13 11:47:25;;;;;;;4.40;4.00;;;27.60;99.90;;;;;;5080475;28;20645;-72
2023/08/13 11:49:52;;;;;;;3.90;3.60;;;28.00;99.90;;;;;;5087464;28;20636;-72
2023/08/13 11:52:21;;;;;;;3.47;3.27;;;27.50;99.90;;;;;;5090278;28;20719;-72
2023/08/13 11:54:48;;;;;;;3.30;3.10;;;27.20;99.90;;;;;;5086736;28;20650;-72
2023/08/13 11:57:15;;;;;;;3.63;3.33;;;26.70;99.90;;;;;;5089157;28;20736;-72
2023/08/13 11:59:43;;;;;;;4.00;3.70;;;26.20;99.90;;;;;;5087595;28;20732;-72
2023/08/13 12:02:10;;;;;;;5.13;4.07;;;25.80;99.90;;;;;;5083161;28;20641;-72
2023/08/13 12:04:37;;;;;;;5.70;4.10;;;26.00;99.90;;;;;;5088808;28;20715;-72
2023/08/13 12:07:09;;;;;;;4.80;4.40;;;25.80;99.90;;;;;;5071337;28;20749;-72
2023/08/13 12:09:37;;;;;;;3.87;3.57;;;25.70;99.90;;;;;;5071181;28;20210;-72
2023/08/13 12:12:04;;;;;;;5.00;4.53;;;25.70;99.90;;;;;;5075181;28;20756;-73
2023/08/13 12:14:31;;;;;;;4.47;3.90;;;25.70;99.90;;;;;;5077372;28;21236;-73
2023/08/13 12:16:58;;;;;;;3.97;3.57;;;25.80;99.90;;;;;;5078100;28;20642;-73
2023/08/13 12:19:25;;;;;;;4.00;3.70;;;25.90;99.90;;;;;;5077686;28;20632;-73
2023/08/13 12:21:52;;;;;;;3.80;3.50;;;26.00;99.90;;;;;;5085904;28;20649;-73
2023/08/13 12:24:18;;;;;;;3.57;3.27;;;26.10;99.90;;;;;;5085861;28;20671;-73
2023/08/13 12:26:46;;;;;;;7.83;3.30;;;26.70;99.90;;;;;;5092761;28;21047;-73
2023/08/13 12:29:13;;;;;;;5.27;3.47;;;27.20;99.90;;;;;;5082281;28;21344;-73
2023/08/13 12:31:40;;;;;;;4.00;3.70;;;27.20;99.90;;;;;;5086604;28;21029;-73
2023/08/13 12:34:07;;;;;;;4.17;3.77;;;28.60;99.90;;;;;;5092147;28;20641;-73
2023/08/13 12:36:34;;;;;;;4.30;3.90;;;30.00;98.40;;;;;;5091557;28;20663;-74
2023/08/13 12:39:00;;;;;;;3.30;3.10;;;30.40;95.00;;;;;;5089825;28;20624;-74
2023/08/13 12:41:28;;;;;;;3.70;3.40;;;29.50;95.40;;;;;;5093845;28;20647;-72
2023/08/13 12:43:56;;;;;;;3.50;3.20;;;30.50;95.00;;;;;;5098266;28;20715;-71
2023/08/13 12:46:22;;;;;;;3.67;3.37;;;31.30;92.90;;;;;;5085438;28;20674;-71
2023/08/13 12:48:49;;;;;;;3.93;3.60;;;31.10;91.70;;;;;;5085766;28;20646;-72
2023/08/13 12:51:16;;;;;;;3.20;3.00;;;30.50;92.40;;;;;;5085116;28;20655;-71